sensor_id;sensor_type;location;lat;lon;timestamp;P1;durP1;ratioP1;P2;durP2;ratioP2
14510;SDS011;7341;50.930;4.038;2022-11-15T00:00:10;25.07;;;18.27;;
14510;SDS011;7341;50.930;4.038;2022-11-15T00:02:37;24.40;;;18.07;;
14510;SDS011;7341;50.930;4.038;2022-11-15T00:05:06;24.17;;;17.70;;
14510;SDS011;7341;50.930;4.038;2022-11-15T00:07:34;25.23;;;18.80;;
14510;SDS011;7341;50.930;4.038;2022-11-15T00:10:02;26.30;;;19.07;;
14510;SDS011;7341;50.930;4.038;2022-11-15T00:12:29;22.23;;;18.00;;
14510;SDS011;7341;50.930;4.038;2022-11-15T00:14:57;25.37;;;18.83;;
14510;SDS011;7341;50.930;4.038;2022-11-15T00:17:24;21.20;;;17.27;;
14510;SDS011;7341;50.930;4.038;2022-11-15T00:19:51;20.37;;;16.50;;
14510;SDS011;7341;50.930;4.038;2022-11-15T00:22:18;22.63;;;17.80;;
14510;SDS011;7341;50.930;4.038;2022-11-15T00:24:47;20.53;;;17.87;;
14510;SDS011;7341;50.930;4.038;2022-11-15T00:27:14;22.77;;;17.77;;
14510;SDS011;7341;50.930;4.038;2022-11-15T00:29:41;24.23;;;17.60;;
14510;SDS011;7341;50.930;4.038;2022-11-15T00:32:08;19.67;;;16.37;;
14510;SDS011;7341;50.930;4.038;2022-11-15T00:34:37;22.77;;;16.57;;
14510;SDS011;7341;50.930;4.038;2022-11-15T00:37:04;24.33;;;16.97;;
14510;SDS011;7341;50.930;4.038;2022-11-15T00:39:34;19.33;;;15.90;;
14510;SDS011;7341;50.930;4.038;2022-11-15T00:42:03;21.37;;;16.27;;
14510;SDS011;7341;50.930;4.038;2022-11-15T00:44:29;19.07;;;15.17;;
14510;SDS011;7341;50.930;4.038;2022-11-15T00:46:56;21.00;;;14.93;;
14510;SDS011;7341;50.930;4.038;2022-11-15T00:49:23;19.27;;;15.53;;
14510;SDS011;7341;50.930;4.038;2022-11-15T00:51:50;18.60;;;14.97;;
14510;SDS011;7341;50.930;4.038;2022-11-15T00:54:17;19.00;;;15.57;;
14510;SDS011;7341;50.930;4.038;2022-11-15T00:56:44;21.17;;;15.50;;
14510;SDS011;7341;50.930;4.038;2022-11-15T00:59:13;18.80;;;15.47;;
14510;SDS011;7341;50.930;4.038;2022-11-15T01:01:40;17.73;;;15.20;;
14510;SDS011;7341;50.930;4.038;2022-11-15T01:04:07;19.10;;;14.97;;
14510;SDS011;7341;50.930;4.038;2022-11-15T01:06:34;19.23;;;14.40;;
14510;SDS011;7341;50.930;4.038;2022-11-15T01:09:02;17.70;;;13.97;;
14510;SDS011;7341;50.930;4.038;2022-11-15T01:11:29;18.70;;;14.37;;
14510;SDS011;7341;50.930;4.038;2022-11-15T01:13:56;17.93;;;13.73;;
14510;SDS011;7341;50.930;4.038;2022-11-15T01:16:24;18.40;;;13.50;;
14510;SDS011;7341;50.930;4.038;2022-11-15T01:18:51;15.57;;;13.47;;
14510;SDS011;7341;50.930;4.038;2022-11-15T01:21:18;20.67;;;14.90;;
14510;SDS011;7341;50.930;4.038;2022-11-15T01:23:46;18.50;;;14.13;;
14510;SDS011;7341;50.930;4.038;2022-11-15T01:26:14;18.57;;;14.63;;
14510;SDS011;7341;50.930;4.038;2022-11-15T01:28:42;19.93;;;14.53;;
14510;SDS011;7341;50.930;4.038;2022-11-15T01:31:10;18.13;;;14.47;;
14510;SDS011;7341;50.930;4.038;2022-11-15T01:33:40;18.00;;;13.87;;
14510;SDS011;7341;50.930;4.038;2022-11-15T01:36:07;15.37;;;13.53;;
14510;SDS011;7341;50.930;4.038;2022-11-15T01:38:37;18.00;;;14.53;;
14510;SDS011;7341;50.930;4.038;2022-11-15T01:41:04;18.20;;;14.80;;
14510;SDS011;7341;50.930;4.038;2022-11-15T01:43:32;17.83;;;14.13;;
14510;SDS011;7341;50.930;4.038;2022-11-15T01:46:01;19.03;;;14.23;;
14510;SDS011;7341;50.930;4.038;2022-11-15T01:48:32;20.40;;;13.67;;
14510;SDS011;7341;50.930;4.038;2022-11-15T01:51:07;19.80;;;13.50;;
14510;SDS011;7341;50.930;4.038;2022-11-15T01:53:38;19.37;;;14.43;;
14510;SDS011;7341;50.930;4.038;2022-11-15T01:56:10;17.70;;;14.07;;
14510;SDS011;7341;50.930;4.038;2022-11-15T01:58:39;16.53;;;13.33;;
14510;SDS011;7341;50.930;4.038;2022-11-15T02:01:08;17.23;;;13.73;;
14510;SDS011;7341;50.930;4.038;2022-11-15T02:03:36;17.73;;;14.20;;
14510;SDS011;7341;50.930;4.038;2022-11-15T02:06:09;16.00;;;13.63;;
14510;SDS011;7341;50.930;4.038;2022-11-15T02:08:36;17.17;;;13.50;;
14510;SDS011;7341;50.930;4.038;2022-11-15T02:11:07;15.57;;;13.53;;
14510;SDS011;7341;50.930;4.038;2022-11-15T02:13:35;21.83;;;14.50;;
14510;SDS011;7341;50.930;4.038;2022-11-15T02:16:04;18.80;;;14.47;;
14510;SDS011;7341;50.930;4.038;2022-11-15T02:18:40;18.90;;;13.63;;
14510;SDS011;7341;50.930;4.038;2022-11-15T02:21:16;19.00;;;14.37;;
14510;SDS011;7341;50.930;4.038;2022-11-15T02:24:06;20.17;;;13.73;;
14510;SDS011;7341;50.930;4.038;2022-11-15T02:30:04;19.37;;;13.70;;
14510;SDS011;7341;50.930;4.038;2022-11-15T02:32:48;18.67;;;12.60;;
14510;SDS011;7341;50.930;4.038;2022-11-15T02:35:22;17.90;;;13.27;;
14510;SDS011;7341;50.930;4.038;2022-11-15T02:38:04;20.97;;;13.20;;
14510;SDS011;7341;50.930;4.038;2022-11-15T02:40:38;18.87;;;14.27;;
14510;SDS011;7341;50.930;4.038;2022-11-15T02:43:12;23.37;;;14.60;;
14510;SDS011;7341;50.930;4.038;2022-11-15T02:46:03;21.75;;;15.05;;
14510;SDS011;7341;50.930;4.038;2022-11-15T02:48:35;16.33;;;12.87;;
14510;SDS011;7341;50.930;4.038;2022-11-15T02:51:03;16.63;;;13.57;;
14510;SDS011;7341;50.930;4.038;2022-11-15T02:53:31;17.87;;;12.93;;
14510;SDS011;7341;50.930;4.038;2022-11-15T02:56:00;21.63;;;14.03;;
14510;SDS011;7341;50.930;4.038;2022-11-15T03:01:37;17.83;;;13.10;;
14510;SDS011;7341;50.930;4.038;2022-11-15T03:04:16;19.67;;;12.87;;
14510;SDS011;7341;50.930;4.038;2022-11-15T03:06:52;15.20;;;11.87;;
14510;SDS011;7341;50.930;4.038;2022-11-15T03:09:30;17.70;;;12.63;;
14510;SDS011;7341;50.930;4.038;2022-11-15T03:12:03;18.93;;;12.30;;
14510;SDS011;7341;50.930;4.038;2022-11-15T03:14:37;13.33;;;11.10;;
14510;SDS011;7341;50.930;4.038;2022-11-15T03:17:11;16.03;;;11.27;;
14510;SDS011;7341;50.930;4.038;2022-11-15T03:19:44;16.00;;;11.60;;
14510;SDS011;7341;50.930;4.038;2022-11-15T03:22:16;13.37;;;11.43;;
14510;SDS011;7341;50.930;4.038;2022-11-15T03:24:46;14.30;;;11.00;;
14510;SDS011;7341;50.930;4.038;2022-11-15T03:27:20;14.07;;;10.20;;
14510;SDS011;7341;50.930;4.038;2022-11-15T03:29:50;15.90;;;10.33;;
14510;SDS011;7341;50.930;4.038;2022-11-15T03:32:25;15.07;;;10.20;;
14510;SDS011;7341;50.930;4.038;2022-11-15T03:34:56;16.20;;;10.10;;
14510;SDS011;7341;50.930;4.038;2022-11-15T03:37:27;13.23;;;9.83;;
14510;SDS011;7341;50.930;4.038;2022-11-15T03:39:59;11.97;;;10.07;;
14510;SDS011;7341;50.930;4.038;2022-11-15T03:42:28;14.90;;;9.83;;
14510;SDS011;7341;50.930;4.038;2022-11-15T03:45:00;13.20;;;9.87;;
14510;SDS011;7341;50.930;4.038;2022-11-15T03:47:34;12.50;;;9.03;;
14510;SDS011;7341;50.930;4.038;2022-11-15T03:50:06;14.87;;;9.40;;
14510;SDS011;7341;50.930;4.038;2022-11-15T03:52:36;13.80;;;9.37;;
14510;SDS011;7341;50.930;4.038;2022-11-15T03:55:06;12.43;;;8.90;;
14510;SDS011;7341;50.930;4.038;2022-11-15T03:57:38;12.17;;;8.17;;
14510;SDS011;7341;50.930;4.038;2022-11-15T04:00:05;11.27;;;8.07;;
14510;SDS011;7341;50.930;4.038;2022-11-15T04:02:34;11.90;;;8.17;;
14510;SDS011;7341;50.930;4.038;2022-11-15T04:05:02;12.13;;;7.93;;
14510;SDS011;7341;50.930;4.038;2022-11-15T04:07:30;11.37;;;7.53;;
14510;SDS011;7341;50.930;4.038;2022-11-15T04:09:57;12.40;;;7.17;;
14510;SDS011;7341;50.930;4.038;2022-11-15T04:12:30;11.57;;;7.57;;
14510;SDS011;7341;50.930;4.038;2022-11-15T04:14:59;12.83;;;7.90;;
14510;SDS011;7341;50.930;4.038;2022-11-15T04:17:35;10.10;;;7.53;;
14510;SDS011;7341;50.930;4.038;2022-11-15T04:20:03;12.57;;;7.40;;
14510;SDS011;7341;50.930;4.038;2022-11-15T04:22:48;12.60;;;7.17;;
14510;SDS011;7341;50.930;4.038;2022-11-15T04:25:41;7.93;;;7.07;;
14510;SDS011;7341;50.930;4.038;2022-11-15T04:28:08;8.00;;;6.57;;
14510;SDS011;7341;50.930;4.038;2022-11-15T04:30:37;8.40;;;6.70;;
14510;SDS011;7341;50.930;4.038;2022-11-15T04:33:05;8.70;;;7.17;;
14510;SDS011;7341;50.930;4.038;2022-11-15T04:35:32;10.07;;;6.97;;
14510;SDS011;7341;50.930;4.038;2022-11-15T04:37:59;9.27;;;6.80;;
14510;SDS011;7341;50.930;4.038;2022-11-15T04:40:26;10.53;;;6.60;;
14510;SDS011;7341;50.930;4.038;2022-11-15T04:42:52;12.50;;;6.27;;
14510;SDS011;7341;50.930;4.038;2022-11-15T04:45:19;7.93;;;6.10;;
14510;SDS011;7341;50.930;4.038;2022-11-15T04:47:46;11.25;;;8.10;;
14510;SDS011;7341;50.930;4.038;2022-11-15T04:50:15;11.33;;;6.93;;
14510;SDS011;7341;50.930;4.038;2022-11-15T04:52:42;7.13;;;6.20;;
14510;SDS011;7341;50.930;4.038;2022-11-15T04:55:10;9.97;;;6.30;;
14510;SDS011;7341;50.930;4.038;2022-11-15T04:57:37;7.10;;;6.00;;
14510;SDS011;7341;50.930;4.038;2022-11-15T05:00:05;14.07;;;6.33;;
14510;SDS011;7341;50.930;4.038;2022-11-15T05:02:34;6.90;;;5.70;;
14510;SDS011;7341;50.930;4.038;2022-11-15T05:05:16;10.13;;;5.80;;
14510;SDS011;7341;50.930;4.038;2022-11-15T05:07:43;9.13;;;5.73;;
14510;SDS011;7341;50.930;4.038;2022-11-15T05:10:11;9.87;;;5.93;;
14510;SDS011;7341;50.930;4.038;2022-11-15T05:12:37;7.80;;;4.80;;
14510;SDS011;7341;50.930;4.038;2022-11-15T05:15:06;7.83;;;5.13;;
14510;SDS011;7341;50.930;4.038;2022-11-15T05:17:39;9.57;;;6.32;;
14510;SDS011;7341;50.930;4.038;2022-11-15T05:20:11;9.83;;;5.40;;
14510;SDS011;7341;50.930;4.038;2022-11-15T05:22:40;7.10;;;4.90;;
14510;SDS011;7341;50.930;4.038;2022-11-15T05:25:07;7.23;;;5.10;;
14510;SDS011;7341;50.930;4.038;2022-11-15T05:27:34;8.57;;;4.50;;
14510;SDS011;7341;50.930;4.038;2022-11-15T05:30:02;5.43;;;4.07;;
14510;SDS011;7341;50.930;4.038;2022-11-15T05:32:29;4.80;;;4.40;;
14510;SDS011;7341;50.930;4.038;2022-11-15T05:34:56;10.80;;;4.90;;
14510;SDS011;7341;50.930;4.038;2022-11-15T05:37:23;8.70;;;4.50;;
14510;SDS011;7341;50.930;4.038;2022-11-15T05:39:51;10.50;;;4.80;;
14510;SDS011;7341;50.930;4.038;2022-11-15T05:42:18;4.53;;;3.70;;
14510;SDS011;7341;50.930;4.038;2022-11-15T05:44:46;7.10;;;3.80;;
14510;SDS011;7341;50.930;4.038;2022-11-15T05:47:22;6.80;;;3.67;;
14510;SDS011;7341;50.930;4.038;2022-11-15T05:49:52;7.00;;;3.70;;
14510;SDS011;7341;50.930;4.038;2022-11-15T05:52:20;6.37;;;4.17;;
14510;SDS011;7341;50.930;4.038;2022-11-15T05:54:52;5.33;;;4.33;;
14510;SDS011;7341;50.930;4.038;2022-11-15T05:57:21;5.70;;;3.80;;
14510;SDS011;7341;50.930;4.038;2022-11-15T05:59:48;5.80;;;3.87;;
14510;SDS011;7341;50.930;4.038;2022-11-15T06:02:15;5.50;;;4.27;;
14510;SDS011;7341;50.930;4.038;2022-11-15T06:04:41;6.63;;;3.60;;
14510;SDS011;7341;50.930;4.038;2022-11-15T06:07:09;6.83;;;3.30;;
14510;SDS011;7341;50.930;4.038;2022-11-15T06:09:36;7.30;;;3.60;;
14510;SDS011;7341;50.930;4.038;2022-11-15T06:12:05;10.43;;;4.03;;
14510;SDS011;7341;50.930;4.038;2022-11-15T06:14:32;8.03;;;4.00;;
14510;SDS011;7341;50.930;4.038;2022-11-15T06:16:59;6.07;;;3.73;;
14510;SDS011;7341;50.930;4.038;2022-11-15T06:19:25;4.57;;;3.50;;
14510;SDS011;7341;50.930;4.038;2022-11-15T06:21:52;6.30;;;3.70;;
14510;SDS011;7341;50.930;4.038;2022-11-15T06:26:49;7.77;;;3.60;;
14510;SDS011;7341;50.930;4.038;2022-11-15T06:29:18;4.60;;;3.60;;
14510;SDS011;7341;50.930;4.038;2022-11-15T06:31:46;6.93;;;3.43;;
14510;SDS011;7341;50.930;4.038;2022-11-15T06:34:14;5.60;;;3.40;;
14510;SDS011;7341;50.930;4.038;2022-11-15T06:36:41;7.63;;;4.77;;
14510;SDS011;7341;50.930;4.038;2022-11-15T06:39:08;6.83;;;3.10;;
14510;SDS011;7341;50.930;4.038;2022-11-15T06:41:36;4.77;;;3.67;;
14510;SDS011;7341;50.930;4.038;2022-11-15T06:44:03;6.67;;;3.47;;
14510;SDS011;7341;50.930;4.038;2022-11-15T06:46:31;8.67;;;4.07;;
14510;SDS011;7341;50.930;4.038;2022-11-15T06:48:58;5.47;;;3.90;;
14510;SDS011;7341;50.930;4.038;2022-11-15T06:51:25;7.07;;;3.83;;
14510;SDS011;7341;50.930;4.038;2022-11-15T06:53:52;5.67;;;3.60;;
14510;SDS011;7341;50.930;4.038;2022-11-15T06:56:21;8.30;;;3.90;;
14510;SDS011;7341;50.930;4.038;2022-11-15T06:58:49;5.67;;;3.90;;
14510;SDS011;7341;50.930;4.038;2022-11-15T07:01:21;3.93;;;3.33;;
14510;SDS011;7341;50.930;4.038;2022-11-15T07:03:55;6.33;;;4.27;;
14510;SDS011;7341;50.930;4.038;2022-11-15T07:06:23;9.57;;;4.70;;
14510;SDS011;7341;50.930;4.038;2022-11-15T07:08:51;5.80;;;3.87;;
14510;SDS011;7341;50.930;4.038;2022-11-15T07:11:18;7.33;;;3.80;;
14510;SDS011;7341;50.930;4.038;2022-11-15T07:13:46;7.17;;;4.53;;
14510;SDS011;7341;50.930;4.038;2022-11-15T07:16:13;5.17;;;4.60;;
14510;SDS011;7341;50.930;4.038;2022-11-15T07:18:40;11.47;;;5.47;;
14510;SDS011;7341;50.930;4.038;2022-11-15T07:21:09;8.40;;;5.00;;
14510;SDS011;7341;50.930;4.038;2022-11-15T07:23:38;9.07;;;5.80;;
14510;SDS011;7341;50.930;4.038;2022-11-15T07:26:05;9.97;;;5.47;;
14510;SDS011;7341;50.930;4.038;2022-11-15T07:28:32;6.73;;;5.87;;
14510;SDS011;7341;50.930;4.038;2022-11-15T07:31:01;10.23;;;5.87;;
14510;SDS011;7341;50.930;4.038;2022-11-15T07:33:28;8.97;;;6.13;;
14510;SDS011;7341;50.930;4.038;2022-11-15T07:35:58;10.77;;;6.23;;
14510;SDS011;7341;50.930;4.038;2022-11-15T07:38:28;12.73;;;6.60;;
14510;SDS011;7341;50.930;4.038;2022-11-15T07:40:55;11.10;;;5.67;;
14510;SDS011;7341;50.930;4.038;2022-11-15T07:43:25;12.30;;;6.13;;
14510;SDS011;7341;50.930;4.038;2022-11-15T07:45:58;6.57;;;5.80;;
14510;SDS011;7341;50.930;4.038;2022-11-15T07:48:29;9.77;;;5.00;;
14510;SDS011;7341;50.930;4.038;2022-11-15T07:50:57;6.60;;;4.90;;
14510;SDS011;7341;50.930;4.038;2022-11-15T07:53:23;9.20;;;5.97;;
14510;SDS011;7341;50.930;4.038;2022-11-15T07:55:51;7.87;;;4.63;;
14510;SDS011;7341;50.930;4.038;2022-11-15T07:58:18;9.17;;;4.93;;
14510;SDS011;7341;50.930;4.038;2022-11-15T08:00:45;6.13;;;4.00;;
14510;SDS011;7341;50.930;4.038;2022-11-15T08:03:13;9.00;;;4.00;;
14510;SDS011;7341;50.930;4.038;2022-11-15T08:05:41;4.37;;;3.57;;
14510;SDS011;7341;50.930;4.038;2022-11-15T08:08:09;4.37;;;3.90;;
14510;SDS011;7341;50.930;4.038;2022-11-15T08:10:37;6.00;;;2.90;;
14510;SDS011;7341;50.930;4.038;2022-11-15T08:13:05;5.77;;;2.90;;
14510;SDS011;7341;50.930;4.038;2022-11-15T08:15:34;3.67;;;2.93;;
14510;SDS011;7341;50.930;4.038;2022-11-15T08:18:03;3.93;;;2.70;;
14510;SDS011;7341;50.930;4.038;2022-11-15T08:20:31;8.23;;;3.10;;
14510;SDS011;7341;50.930;4.038;2022-11-15T08:22:59;6.57;;;2.33;;
14510;SDS011;7341;50.930;4.038;2022-11-15T08:25:28;2.73;;;2.30;;
14510;SDS011;7341;50.930;4.038;2022-11-15T08:27:56;4.77;;;2.37;;
14510;SDS011;7341;50.930;4.038;2022-11-15T08:30:26;4.53;;;2.53;;
14510;SDS011;7341;50.930;4.038;2022-11-15T08:32:55;6.20;;;2.23;;
14510;SDS011;7341;50.930;4.038;2022-11-15T08:35:23;3.50;;;2.20;;
14510;SDS011;7341;50.930;4.038;2022-11-15T08:37:50;4.80;;;2.13;;
14510;SDS011;7341;50.930;4.038;2022-11-15T08:40:18;3.77;;;2.07;;
14510;SDS011;7341;50.930;4.038;2022-11-15T08:42:45;8.03;;;2.10;;
14510;SDS011;7341;50.930;4.038;2022-11-15T08:45:12;4.63;;;2.10;;
14510;SDS011;7341;50.930;4.038;2022-11-15T08:47:42;5.63;;;1.93;;
14510;SDS011;7341;50.930;4.038;2022-11-15T08:50:09;3.00;;;2.30;;
14510;SDS011;7341;50.930;4.038;2022-11-15T08:52:36;6.50;;;1.70;;
14510;SDS011;7341;50.930;4.038;2022-11-15T08:55:04;3.27;;;1.70;;
14510;SDS011;7341;50.930;4.038;2022-11-15T08:57:31;6.50;;;1.57;;
14510;SDS011;7341;50.930;4.038;2022-11-15T08:59:58;5.27;;;2.17;;
14510;SDS011;7341;50.930;4.038;2022-11-15T09:02:25;4.73;;;1.90;;
14510;SDS011;7341;50.930;4.038;2022-11-15T09:04:53;4.40;;;1.70;;
14510;SDS011;7341;50.930;4.038;2022-11-15T09:07:20;5.40;;;1.57;;
14510;SDS011;7341;50.930;4.038;2022-11-15T09:09:47;8.10;;;1.63;;
14510;SDS011;7341;50.930;4.038;2022-11-15T09:12:14;3.13;;;1.63;;
14510;SDS011;7341;50.930;4.038;2022-11-15T09:14:41;5.20;;;1.70;;
14510;SDS011;7341;50.930;4.038;2022-11-15T09:17:08;6.50;;;1.63;;
14510;SDS011;7341;50.930;4.038;2022-11-15T09:19:36;4.23;;;1.93;;
14510;SDS011;7341;50.930;4.038;2022-11-15T09:22:06;8.43;;;2.60;;
14510;SDS011;7341;50.930;4.038;2022-11-15T09:24:34;4.03;;;1.30;;
14510;SDS011;7341;50.930;4.038;2022-11-15T09:27:01;4.93;;;1.50;;
14510;SDS011;7341;50.930;4.038;2022-11-15T09:29:28;7.87;;;1.67;;
14510;SDS011;7341;50.930;4.038;2022-11-15T09:31:55;7.67;;;1.50;;
14510;SDS011;7341;50.930;4.038;2022-11-15T09:34:22;5.23;;;1.80;;
14510;SDS011;7341;50.930;4.038;2022-11-15T09:36:49;3.10;;;1.40;;
14510;SDS011;7341;50.930;4.038;2022-11-15T09:39:17;4.57;;;1.60;;
14510;SDS011;7341;50.930;4.038;2022-11-15T09:45:05;3.70;;;1.50;;
14510;SDS011;7341;50.930;4.038;2022-11-15T09:50:45;2.67;;;1.27;;
14510;SDS011;7341;50.930;4.038;2022-11-15T09:53:15;3.93;;;1.40;;
14510;SDS011;7341;50.930;4.038;2022-11-15T09:55:51;4.50;;;1.30;;
14510;SDS011;7341;50.930;4.038;2022-11-15T09:58:25;5.03;;;2.10;;
14510;SDS011;7341;50.930;4.038;2022-11-15T10:00:58;5.10;;;1.40;;
14510;SDS011;7341;50.930;4.038;2022-11-15T10:03:30;6.53;;;1.83;;
14510;SDS011;7341;50.930;4.038;2022-11-15T10:06:01;3.73;;;1.43;;
14510;SDS011;7341;50.930;4.038;2022-11-15T10:08:35;9.23;;;1.40;;
14510;SDS011;7341;50.930;4.038;2022-11-15T10:11:14;5.57;;;1.60;;
14510;SDS011;7341;50.930;4.038;2022-11-15T10:13:44;4.57;;;1.43;;
14510;SDS011;7341;50.930;4.038;2022-11-15T10:16:17;1.97;;;1.23;;
14510;SDS011;7341;50.930;4.038;2022-11-15T10:19:04;3.77;;;1.80;;
14510;SDS011;7341;50.930;4.038;2022-11-15T10:21:40;5.15;;;1.90;;
14510;SDS011;7341;50.930;4.038;2022-11-15T10:24:23;7.07;;;1.77;;
14510;SDS011;7341;50.930;4.038;2022-11-15T10:26:54;8.30;;;1.30;;
14510;SDS011;7341;50.930;4.038;2022-11-15T10:29:23;7.17;;;2.33;;
14510;SDS011;7341;50.930;4.038;2022-11-15T10:31:52;4.70;;;1.90;;
14510;SDS011;7341;50.930;4.038;2022-11-15T10:34:19;6.67;;;1.77;;
14510;SDS011;7341;50.930;4.038;2022-11-15T10:36:53;4.77;;;1.63;;
14510;SDS011;7341;50.930;4.038;2022-11-15T10:39:29;5.30;;;1.40;;
14510;SDS011;7341;50.930;4.038;2022-11-15T10:42:00;5.83;;;1.43;;
14510;SDS011;7341;50.930;4.038;2022-11-15T10:44:42;6.68;;;1.90;;
14510;SDS011;7341;50.930;4.038;2022-11-15T10:47:24;5.33;;;1.60;;
14510;SDS011;7341;50.930;4.038;2022-11-15T10:49:57;4.53;;;1.73;;
14510;SDS011;7341;50.930;4.038;2022-11-15T10:52:28;7.97;;;1.70;;
14510;SDS011;7341;50.930;4.038;2022-11-15T10:54:58;7.60;;;1.70;;
14510;SDS011;7341;50.930;4.038;2022-11-15T10:57:30;3.07;;;1.20;;
14510;SDS011;7341;50.930;4.038;2022-11-15T11:00:05;5.47;;;1.33;;
14510;SDS011;7341;50.930;4.038;2022-11-15T11:02:34;5.13;;;1.20;;
14510;SDS011;7341;50.930;4.038;2022-11-15T11:05:30;6.87;;;1.43;;
14510;SDS011;7341;50.930;4.038;2022-11-15T11:07:59;6.00;;;1.50;;
14510;SDS011;7341;50.930;4.038;2022-11-15T11:10:30;5.23;;;1.47;;
14510;SDS011;7341;50.930;4.038;2022-11-15T11:13:13;5.30;;;1.53;;
14510;SDS011;7341;50.930;4.038;2022-11-15T11:15:42;5.37;;;1.13;;
14510;SDS011;7341;50.930;4.038;2022-11-15T11:18:18;3.60;;;1.40;;
14510;SDS011;7341;50.930;4.038;2022-11-15T11:20:53;3.43;;;1.43;;
14510;SDS011;7341;50.930;4.038;2022-11-15T11:23:33;3.33;;;1.20;;
14510;SDS011;7341;50.930;4.038;2022-11-15T11:26:12;3.50;;;0.90;;
14510;SDS011;7341;50.930;4.038;2022-11-15T11:28:54;5.17;;;2.40;;
14510;SDS011;7341;50.930;4.038;2022-11-15T11:31:37;4.33;;;1.20;;
14510;SDS011;7341;50.930;4.038;2022-11-15T11:34:13;5.90;;;1.47;;
14510;SDS011;7341;50.930;4.038;2022-11-15T11:36:48;5.20;;;1.50;;
14510;SDS011;7341;50.930;4.038;2022-11-15T11:39:24;2.27;;;1.40;;
14510;SDS011;7341;50.930;4.038;2022-11-15T11:41:58;2.37;;;0.97;;
14510;SDS011;7341;50.930;4.038;2022-11-15T11:44:32;4.03;;;1.37;;
14510;SDS011;7341;50.930;4.038;2022-11-15T11:47:03;4.57;;;1.70;;
14510;SDS011;7341;50.930;4.038;2022-11-15T11:49:39;9.10;;;1.37;;
14510;SDS011;7341;50.930;4.038;2022-11-15T11:52:14;6.47;;;1.70;;
14510;SDS011;7341;50.930;4.038;2022-11-15T11:54:48;6.50;;;1.63;;
14510;SDS011;7341;50.930;4.038;2022-11-15T11:57:23;7.87;;;1.20;;
14510;SDS011;7341;50.930;4.038;2022-11-15T11:59:58;5.70;;;1.33;;
14510;SDS011;7341;50.930;4.038;2022-11-15T12:02:28;6.27;;;1.37;;
14510;SDS011;7341;50.930;4.038;2022-11-15T12:05:01;4.50;;;1.17;;
14510;SDS011;7341;50.930;4.038;2022-11-15T12:07:34;3.47;;;1.40;;
14510;SDS011;7341;50.930;4.038;2022-11-15T12:10:04;4.67;;;1.50;;
14510;SDS011;7341;50.930;4.038;2022-11-15T12:12:49;5.93;;;1.40;;
14510;SDS011;7341;50.930;4.038;2022-11-15T12:15:23;6.40;;;1.53;;
14510;SDS011;7341;50.930;4.038;2022-11-15T12:17:53;4.60;;;1.37;;
14510;SDS011;7341;50.930;4.038;2022-11-15T12:20:24;7.73;;;1.67;;
14510;SDS011;7341;50.930;4.038;2022-11-15T12:22:59;5.50;;;1.50;;
14510;SDS011;7341;50.930;4.038;2022-11-15T12:25:40;6.20;;;1.27;;
14510;SDS011;7341;50.930;4.038;2022-11-15T12:28:13;4.70;;;1.20;;
14510;SDS011;7341;50.930;4.038;2022-11-15T12:30:53;2.60;;;1.33;;
14510;SDS011;7341;50.930;4.038;2022-11-15T12:33:34;4.57;;;1.70;;
14510;SDS011;7341;50.930;4.038;2022-11-15T12:36:04;4.37;;;1.30;;
14510;SDS011;7341;50.930;4.038;2022-11-15T12:41:23;4.07;;;1.20;;
14510;SDS011;7341;50.930;4.038;2022-11-15T12:43:51;6.47;;;1.40;;
14510;SDS011;7341;50.930;4.038;2022-11-15T12:52:10;5.07;;;1.93;;
14510;SDS011;7341;50.930;4.038;2022-11-15T12:57:40;3.00;;;1.20;;
14510;SDS011;7341;50.930;4.038;2022-11-15T13:03:16;5.53;;;1.10;;
14510;SDS011;7341;50.930;4.038;2022-11-15T13:06:05;3.87;;;1.20;;
14510;SDS011;7341;50.930;4.038;2022-11-15T13:08:59;3.03;;;1.20;;
14510;SDS011;7341;50.930;4.038;2022-11-15T13:22:49;4.13;;;1.23;;
14510;SDS011;7341;50.930;4.038;2022-11-15T13:25:18;2.57;;;1.10;;
14510;SDS011;7341;50.930;4.038;2022-11-15T13:27:53;2.27;;;0.93;;
14510;SDS011;7341;50.930;4.038;2022-11-15T13:30:23;3.60;;;1.03;;
14510;SDS011;7341;50.930;4.038;2022-11-15T13:32:52;1.63;;;1.20;;
14510;SDS011;7341;50.930;4.038;2022-11-15T13:35:20;2.53;;;1.10;;
14510;SDS011;7341;50.930;4.038;2022-11-15T13:37:52;4.90;;;1.40;;
14510;SDS011;7341;50.930;4.038;2022-11-15T13:40:21;3.73;;;1.30;;
14510;SDS011;7341;50.930;4.038;2022-11-15T13:42:53;3.13;;;1.23;;
14510;SDS011;7341;50.930;4.038;2022-11-15T13:45:24;1.87;;;1.10;;
14510;SDS011;7341;50.930;4.038;2022-11-15T13:47:53;4.53;;;1.30;;
14510;SDS011;7341;50.930;4.038;2022-11-15T13:50:23;3.33;;;1.17;;
14510;SDS011;7341;50.930;4.038;2022-11-15T13:52:58;3.87;;;1.30;;
14510;SDS011;7341;50.930;4.038;2022-11-15T13:55:27;1.93;;;1.27;;
14510;SDS011;7341;50.930;4.038;2022-11-15T13:58:00;1.37;;;1.20;;
14510;SDS011;7341;50.930;4.038;2022-11-15T14:00:32;1.63;;;1.10;;
14510;SDS011;7341;50.930;4.038;2022-11-15T14:03:05;2.37;;;1.20;;
14510;SDS011;7341;50.930;4.038;2022-11-15T14:05:41;3.70;;;1.47;;
14510;SDS011;7341;50.930;4.038;2022-11-15T14:08:21;3.10;;;1.07;;
14510;SDS011;7341;50.930;4.038;2022-11-15T14:11:05;2.67;;;1.30;;
14510;SDS011;7341;50.930;4.038;2022-11-15T14:13:39;3.43;;;1.43;;
14510;SDS011;7341;50.930;4.038;2022-11-15T14:16:13;2.83;;;1.20;;
14510;SDS011;7341;50.930;4.038;2022-11-15T14:18:51;2.85;;;1.50;;
14510;SDS011;7341;50.930;4.038;2022-11-15T14:21:19;5.47;;;1.57;;
14510;SDS011;7341;50.930;4.038;2022-11-15T14:23:47;2.00;;;1.40;;
14510;SDS011;7341;50.930;4.038;2022-11-15T14:26:27;2.40;;;1.50;;
14510;SDS011;7341;50.930;4.038;2022-11-15T14:31:51;2.00;;;1.20;;
14510;SDS011;7341;50.930;4.038;2022-11-15T14:34:19;1.67;;;1.30;;
14510;SDS011;7341;50.930;4.038;2022-11-15T14:36:47;4.87;;;1.53;;
14510;SDS011;7341;50.930;4.038;2022-11-15T14:39:15;2.33;;;1.33;;
14510;SDS011;7341;50.930;4.038;2022-11-15T14:41:43;2.97;;;1.33;;
14510;SDS011;7341;50.930;4.038;2022-11-15T14:44:13;3.43;;;1.67;;
14510;SDS011;7341;50.930;4.038;2022-11-15T14:46:49;2.90;;;1.80;;
14510;SDS011;7341;50.930;4.038;2022-11-15T14:49:16;2.90;;;1.60;;
14510;SDS011;7341;50.930;4.038;2022-11-15T14:51:42;3.67;;;1.93;;
14510;SDS011;7341;50.930;4.038;2022-11-15T14:54:16;3.13;;;1.70;;
14510;SDS011;7341;50.930;4.038;2022-11-15T14:56:51;5.23;;;1.60;;
14510;SDS011;7341;50.930;4.038;2022-11-15T14:59:21;4.30;;;2.10;;
14510;SDS011;7341;50.930;4.038;2022-11-15T15:01:50;4.97;;;1.60;;
14510;SDS011;7341;50.930;4.038;2022-11-15T15:04:19;3.20;;;2.20;;
14510;SDS011;7341;50.930;4.038;2022-11-15T15:06:46;2.50;;;2.10;;
14510;SDS011;7341;50.930;4.038;2022-11-15T15:09:17;4.20;;;2.30;;
14510;SDS011;7341;50.930;4.038;2022-11-15T15:11:50;5.40;;;2.40;;
14510;SDS011;7341;50.930;4.038;2022-11-15T15:14:20;2.50;;;2.13;;
14510;SDS011;7341;50.930;4.038;2022-11-15T15:16:54;4.00;;;2.30;;
14510;SDS011;7341;50.930;4.038;2022-11-15T15:19:28;2.67;;;2.33;;
14510;SDS011;7341;50.930;4.038;2022-11-15T15:21:56;3.17;;;2.47;;
14510;SDS011;7341;50.930;4.038;2022-11-15T15:24:30;5.00;;;2.77;;
14510;SDS011;7341;50.930;4.038;2022-11-15T15:27:03;4.13;;;2.90;;
14510;SDS011;7341;50.930;4.038;2022-11-15T15:29:29;2.93;;;2.30;;
14510;SDS011;7341;50.930;4.038;2022-11-15T15:32:02;4.40;;;2.70;;
14510;SDS011;7341;50.930;4.038;2022-11-15T15:34:29;3.53;;;2.90;;
14510;SDS011;7341;50.930;4.038;2022-11-15T15:37:07;2.33;;;2.23;;
14510;SDS011;7341;50.930;4.038;2022-11-15T15:39:51;7.03;;;2.63;;
14510;SDS011;7341;50.930;4.038;2022-11-15T15:42:21;5.10;;;2.77;;
14510;SDS011;7341;50.930;4.038;2022-11-15T15:44:49;5.50;;;2.50;;
14510;SDS011;7341;50.930;4.038;2022-11-15T15:47:19;5.83;;;2.60;;
14510;SDS011;7341;50.930;4.038;2022-11-15T15:49:48;3.57;;;2.43;;
14510;SDS011;7341;50.930;4.038;2022-11-15T15:54:45;3.97;;;2.77;;
14510;SDS011;7341;50.930;4.038;2022-11-15T15:57:14;2.73;;;2.50;;
14510;SDS011;7341;50.930;4.038;2022-11-15T15:59:41;4.00;;;2.60;;